sensor_id;sensor_type;location;lat;lon;timestamp;temperature;humidity
36818;DHT22;22761;51.542;16.450;2022-12-19T00:01:25;-1.91;63.43
36818;DHT22;22761;51.542;16.450;2022-12-19T00:03:56;-1.90;63.32
36818;DHT22;22761;51.542;16.450;2022-12-19T00:06:24;-1.93;63.47
36818;DHT22;22761;51.542;16.450;2022-12-19T00:08:52;-1.91;63.58
36818;DHT22;22761;51.542;16.450;2022-12-19T00:11:22;-1.93;63.58
36818;DHT22;22761;51.542;16.450;2022-12-19T00:13:50;-1.94;63.76
36818;DHT22;22761;51.542;16.450;2022-12-19T00:16:20;-1.96;63.93
36818;DHT22;22761;51.542;16.450;2022-12-19T00:18:50;-1.96;64.01
36818;DHT22;22761;51.542;16.450;2022-12-19T00:21:20;-1.97;64.09
36818;DHT22;22761;51.542;16.450;2022-12-19T00:23:48;-1.97;64.10
36818;DHT22;22761;51.542;16.450;2022-12-19T00:26:19;-1.98;64.23
36818;DHT22;22761;51.542;16.450;2022-12-19T00:28:51;-2.00;63.94
36818;DHT22;22761;51.542;16.450;2022-12-19T00:31:20;-2.01;63.91
36818;DHT22;22761;51.542;16.450;2022-12-19T00:33:48;-2.01;63.99
36818;DHT22;22761;51.542;16.450;2022-12-19T00:36:18;-1.98;63.94
36818;DHT22;22761;51.542;16.450;2022-12-19T00:38:46;-2.00;63.69
36818;DHT22;22761;51.542;16.450;2022-12-19T00:41:20;-1.97;63.63
36818;DHT22;22761;51.542;16.450;2022-12-19T00:44:00;-1.98;63.57
36818;DHT22;22761;51.542;16.450;2022-12-19T00:46:29;-1.94;63.53
36818;DHT22;22761;51.542;16.450;2022-12-19T00:48:57;-1.91;63.65
36818;DHT22;22761;51.542;16.450;2022-12-19T00:51:28;-1.83;63.69
36818;DHT22;22761;51.542;16.450;2022-12-19T00:53:56;-1.82;63.71
36818;DHT22;22761;51.542;16.450;2022-12-19T00:56:27;-1.78;63.62
36818;DHT22;22761;51.542;16.450;2022-12-19T00:58:55;-1.73;63.27
36818;DHT22;22761;51.542;16.450;2022-12-19T01:01:30;-1.73;63.10
36818;DHT22;22761;51.542;16.450;2022-12-19T01:03:59;-1.69;62.98
36818;DHT22;22761;51.542;16.450;2022-12-19T01:06:27;-1.66;62.75
36818;DHT22;22761;51.542;16.450;2022-12-19T01:08:54;-1.69;62.80
36818;DHT22;22761;51.542;16.450;2022-12-19T01:11:22;-1.66;62.74
36818;DHT22;22761;51.542;16.450;2022-12-19T01:13:52;-1.65;62.52
36818;DHT22;22761;51.542;16.450;2022-12-19T01:16:18;-1.63;62.52
36818;DHT22;22761;51.542;16.450;2022-12-19T01:18:45;-1.62;62.47
36818;DHT22;22761;51.542;16.450;2022-12-19T01:21:12;-1.59;62.44
36818;DHT22;22761;51.542;16.450;2022-12-19T01:23:39;-1.55;62.30
36818;DHT22;22761;51.542;16.450;2022-12-19T01:26:09;-1.56;62.53
36818;DHT22;22761;51.542;16.450;2022-12-19T01:28:36;-1.50;62.22
36818;DHT22;22761;51.542;16.450;2022-12-19T01:31:06;-1.51;62.26
36818;DHT22;22761;51.542;16.450;2022-12-19T01:33:34;-1.50;62.24
36818;DHT22;22761;51.542;16.450;2022-12-19T01:36:03;-1.47;62.02
36818;DHT22;22761;51.542;16.450;2022-12-19T01:38:34;-1.45;61.98
36818;DHT22;22761;51.542;16.450;2022-12-19T01:41:02;-1.42;61.92
36818;DHT22;22761;51.542;16.450;2022-12-19T01:46:03;-1.35;61.74
36818;DHT22;22761;51.542;16.450;2022-12-19T01:48:42;-1.34;61.40
36818;DHT22;22761;51.542;16.450;2022-12-19T01:51:22;-1.38;61.68
36818;DHT22;22761;51.542;16.450;2022-12-19T01:53:50;-1.35;61.71
36818;DHT22;22761;51.542;16.450;2022-12-19T01:56:23;-1.33;61.69
36818;DHT22;22761;51.542;16.450;2022-12-19T01:58:53;-1.31;61.53
36818;DHT22;22761;51.542;16.450;2022-12-19T02:01:21;-1.27;61.51
36818;DHT22;22761;51.542;16.450;2022-12-19T02:03:50;-1.25;61.49
36818;DHT22;22761;51.542;16.450;2022-12-19T02:06:19;-1.23;61.53
36818;DHT22;22761;51.542;16.450;2022-12-19T02:08:47;-1.19;61.44
36818;DHT22;22761;51.542;16.450;2022-12-19T02:11:14;-1.24;61.60
36818;DHT22;22761;51.542;16.450;2022-12-19T02:13:42;-1.14;61.39
36818;DHT22;22761;51.542;16.450;2022-12-19T02:16:43;-1.12;61.04
36818;DHT22;22761;51.542;16.450;2022-12-19T02:25:10;-1.09;61.42
36818;DHT22;22761;51.542;16.450;2022-12-19T02:31:07;-1.03;61.20
36818;DHT22;22761;51.542;16.450;2022-12-19T02:34:13;-1.06;61.40
36818;DHT22;22761;51.542;16.450;2022-12-19T02:37:06;-0.99;61.19
36818;DHT22;22761;51.542;16.450;2022-12-19T02:42:24;-1.00;61.22
36818;DHT22;22761;51.542;16.450;2022-12-19T02:44:51;-0.99;61.15
36818;DHT22;22761;51.542;16.450;2022-12-19T02:47:20;-0.96;61.21
36818;DHT22;22761;51.542;16.450;2022-12-19T02:49:47;-0.93;61.12
36818;DHT22;22761;51.542;16.450;2022-12-19T02:54:58;-0.85;61.02
36818;DHT22;22761;51.542;16.450;2022-12-19T03:00:24;-0.79;61.04
36818;DHT22;22761;51.542;16.450;2022-12-19T03:11:30;-0.57;60.06
36818;DHT22;22761;51.542;16.450;2022-12-19T03:14:06;-0.57;60.33
36818;DHT22;22761;51.542;16.450;2022-12-19T03:16:35;-0.54;60.39
36818;DHT22;22761;51.542;16.450;2022-12-19T03:19:07;-0.47;60.04
36818;DHT22;22761;51.542;16.450;2022-12-19T03:21:41;-0.45;60.20
36818;DHT22;22761;51.542;16.450;2022-12-19T03:24:08;-0.41;59.74
36818;DHT22;22761;51.542;16.450;2022-12-19T03:32:01;-0.31;59.33
36818;DHT22;22761;51.542;16.450;2022-12-19T03:34:34;-0.33;59.48
36818;DHT22;22761;51.542;16.450;2022-12-19T03:37:02;-0.31;59.37
36818;DHT22;22761;51.542;16.450;2022-12-19T03:39:31;-0.26;59.31
36818;DHT22;22761;51.542;16.450;2022-12-19T03:42:02;-0.24;59.22
36818;DHT22;22761;51.542;16.450;2022-12-19T03:44:50;-0.22;59.15
36818;DHT22;22761;51.542;16.450;2022-12-19T03:47:41;-0.17;58.99
36818;DHT22;22761;51.542;16.450;2022-12-19T03:50:10;-0.19;59.06
36818;DHT22;22761;51.542;16.450;2022-12-19T03:55:57;-0.23;59.25
36818;DHT22;22761;51.542;16.450;2022-12-19T03:58:33;-0.20;59.40
36818;DHT22;22761;51.542;16.450;2022-12-19T04:01:02;-0.17;59.28
36818;DHT22;22761;51.542;16.450;2022-12-19T04:03:31;-0.15;58.99
36818;DHT22;22761;51.542;16.450;2022-12-19T04:06:00;-0.13;59.05
36818;DHT22;22761;51.542;16.450;2022-12-19T04:08:29;-0.12;58.99
36818;DHT22;22761;51.542;16.450;2022-12-19T04:11:02;-0.13;59.07
36818;DHT22;22761;51.542;16.450;2022-12-19T04:13:40;-0.12;59.27
36818;DHT22;22761;51.542;16.450;2022-12-19T04:16:18;-0.10;59.11
36818;DHT22;22761;51.542;16.450;2022-12-19T04:18:51;-0.09;58.96
36818;DHT22;22761;51.542;16.450;2022-12-19T04:21:30;-0.09;58.85
36818;DHT22;22761;51.542;16.450;2022-12-19T04:23:59;-0.02;58.52
36818;DHT22;22761;51.542;16.450;2022-12-19T04:26:26;-0.06;58.67
36818;DHT22;22761;51.542;16.450;2022-12-19T04:28:58;-0.09;58.69
36818;DHT22;22761;51.542;16.450;2022-12-19T04:31:26;-0.13;58.70
36818;DHT22;22761;51.542;16.450;2022-12-19T04:33:53;-0.13;58.59
36818;DHT22;22761;51.542;16.450;2022-12-19T04:36:20;-0.17;58.71
36818;DHT22;22761;51.542;16.450;2022-12-19T04:38:47;-0.20;58.50
36818;DHT22;22761;51.542;16.450;2022-12-19T04:41:15;-0.20;58.52
36818;DHT22;22761;51.542;16.450;2022-12-19T04:43:42;-0.24;58.60
36818;DHT22;22761;51.542;16.450;2022-12-19T04:46:09;-0.29;58.73
36818;DHT22;22761;51.542;16.450;2022-12-19T04:48:36;-0.30;58.50
36818;DHT22;22761;51.542;16.450;2022-12-19T04:51:04;-0.33;58.37
36818;DHT22;22761;51.542;16.450;2022-12-19T04:53:31;-0.40;58.51
36818;DHT22;22761;51.542;16.450;2022-12-19T04:56:02;-0.43;58.68
36818;DHT22;22761;51.542;16.450;2022-12-19T04:58:31;-0.43;58.68
36818;DHT22;22761;51.542;16.450;2022-12-19T05:01:05;-0.47;58.77
36818;DHT22;22761;51.542;16.450;2022-12-19T05:03:34;-0.52;58.95
36818;DHT22;22761;51.542;16.450;2022-12-19T05:06:12;-0.58;59.15
36818;DHT22;22761;51.542;16.450;2022-12-19T05:08:38;-0.61;59.24
36818;DHT22;22761;51.542;16.450;2022-12-19T05:11:10;-0.61;59.28
36818;DHT22;22761;51.542;16.450;2022-12-19T05:13:37;-0.61;59.36
36818;DHT22;22761;51.542;16.450;2022-12-19T05:16:08;-0.64;59.32
36818;DHT22;22761;51.542;16.450;2022-12-19T05:18:37;-0.65;59.22
36818;DHT22;22761;51.542;16.450;2022-12-19T05:21:05;-0.66;59.33
36818;DHT22;22761;51.542;16.450;2022-12-19T05:23:33;-0.72;59.47
36818;DHT22;22761;51.542;16.450;2022-12-19T05:26:01;-0.71;59.60
36818;DHT22;22761;51.542;16.450;2022-12-19T05:28:30;-0.69;59.64
36818;DHT22;22761;51.542;16.450;2022-12-19T05:31:05;-0.75;59.76
36818;DHT22;22761;51.542;16.450;2022-12-19T05:33:34;-0.73;59.78
36818;DHT22;22761;51.542;16.450;2022-12-19T05:36:02;-0.73;59.83
36818;DHT22;22761;51.542;16.450;2022-12-19T05:38:30;-0.71;59.85
36818;DHT22;22761;51.542;16.450;2022-12-19T05:40:57;-0.73;59.93
36818;DHT22;22761;51.542;16.450;2022-12-19T05:43:25;-0.71;60.01
36818;DHT22;22761;51.542;16.450;2022-12-19T05:45:53;-0.72;60.03
36818;DHT22;22761;51.542;16.450;2022-12-19T05:48:20;-0.69;59.91
36818;DHT22;22761;51.542;16.450;2022-12-19T05:50:49;-0.71;59.87
36818;DHT22;22761;51.542;16.450;2022-12-19T05:53:17;-0.69;59.61
36818;DHT22;22761;51.542;16.450;2022-12-19T05:55:44;-0.76;59.82
36818;DHT22;22761;51.542;16.450;2022-12-19T05:58:12;-0.82;59.90
36818;DHT22;22761;51.542;16.450;2022-12-19T06:00:39;-0.83;59.82
36818;DHT22;22761;51.542;16.450;2022-12-19T06:03:06;-0.86;59.86
36818;DHT22;22761;51.542;16.450;2022-12-19T06:05:38;-0.89;59.92
36818;DHT22;22761;51.542;16.450;2022-12-19T06:08:05;-0.96;60.06
36818;DHT22;22761;51.542;16.450;2022-12-19T06:10:33;-0.97;60.12
36818;DHT22;22761;51.542;16.450;2022-12-19T06:13:00;-1.01;60.34
36818;DHT22;22761;51.542;16.450;2022-12-19T06:15:27;-1.04;60.26
36818;DHT22;22761;51.542;16.450;2022-12-19T06:17:54;-1.10;60.43
36818;DHT22;22761;51.542;16.450;2022-12-19T06:20:21;-1.09;60.56
36818;DHT22;22761;51.542;16.450;2022-12-19T06:22:48;-1.10;60.50
36818;DHT22;22761;51.542;16.450;2022-12-19T06:25:15;-1.12;60.57
36818;DHT22;22761;51.542;16.450;2022-12-19T06:27:43;-1.20;60.71
36818;DHT22;22761;51.542;16.450;2022-12-19T06:30:11;-1.21;60.72
36818;DHT22;22761;51.542;16.450;2022-12-19T06:32:38;-1.23;60.78
36818;DHT22;22761;51.542;16.450;2022-12-19T06:35:07;-1.23;60.87
36818;DHT22;22761;51.542;16.450;2022-12-19T06:37:34;-1.25;60.83
36818;DHT22;22761;51.542;16.450;2022-12-19T06:40:02;-1.27;60.89
36818;DHT22;22761;51.542;16.450;2022-12-19T06:42:29;-1.25;60.92
36818;DHT22;22761;51.542;16.450;2022-12-19T06:44:56;-1.34;61.05
36818;DHT22;22761;51.542;16.450;2022-12-19T06:47:24;-1.31;61.00
36818;DHT22;22761;51.542;16.450;2022-12-19T06:49:52;-1.35;61.05
36818;DHT22;22761;51.542;16.450;2022-12-19T06:52:19;-1.40;61.19
36818;DHT22;22761;51.542;16.450;2022-12-19T06:54:46;-1.42;61.26
36818;DHT22;22761;51.542;16.450;2022-12-19T06:57:13;-1.44;61.36
36818;DHT22;22761;51.542;16.450;2022-12-19T06:59:40;-1.48;61.49
36818;DHT22;22761;51.542;16.450;2022-12-19T07:02:27;-1.44;61.51
36818;DHT22;22761;51.542;16.450;2022-12-19T07:05:00;-1.44;61.50
36818;DHT22;22761;51.542;16.450;2022-12-19T07:07:29;-1.42;61.54
36818;DHT22;22761;51.542;16.450;2022-12-19T07:09:56;-1.37;61.54
36818;DHT22;22761;51.542;16.450;2022-12-19T07:12:24;-1.34;61.51
36818;DHT22;22761;51.542;16.450;2022-12-19T07:14:51;-1.33;61.50
36818;DHT22;22761;51.542;16.450;2022-12-19T07:17:18;-1.28;61.48
36818;DHT22;22761;51.542;16.450;2022-12-19T07:19:46;-1.27;61.42
36818;DHT22;22761;51.542;16.450;2022-12-19T07:22:16;-1.21;61.44
36818;DHT22;22761;51.542;16.450;2022-12-19T07:24:44;-1.19;61.48
36818;DHT22;22761;51.542;16.450;2022-12-19T07:27:11;-1.14;61.44
36818;DHT22;22761;51.542;16.450;2022-12-19T07:29:38;-1.07;61.42
36818;DHT22;22761;51.542;16.450;2022-12-19T07:32:05;-0.99;61.24
36818;DHT22;22761;51.542;16.450;2022-12-19T07:34:32;-0.93;61.22
36818;DHT22;22761;51.542;16.450;2022-12-19T07:36:59;-0.92;61.19
36818;DHT22;22761;51.542;16.450;2022-12-19T07:39:26;-0.89;61.10
36818;DHT22;22761;51.542;16.450;2022-12-19T07:41:53;-0.86;61.04
36818;DHT22;22761;51.542;16.450;2022-12-19T07:44:22;-0.76;60.89
36818;DHT22;22761;51.542;16.450;2022-12-19T07:46:49;-0.69;60.69
36818;DHT22;22761;51.542;16.450;2022-12-19T07:49:18;-0.65;60.70
36818;DHT22;22761;51.542;16.450;2022-12-19T07:51:45;-0.55;60.56
36818;DHT22;22761;51.542;16.450;2022-12-19T07:54:12;-0.51;60.51
36818;DHT22;22761;51.542;16.450;2022-12-19T07:56:42;-0.48;60.46
36818;DHT22;22761;51.542;16.450;2022-12-19T07:59:09;-0.40;60.29
36818;DHT22;22761;51.542;16.450;2022-12-19T08:01:38;-0.34;60.30
36818;DHT22;22761;51.542;16.450;2022-12-19T08:04:05;-0.24;60.24
36818;DHT22;22761;51.542;16.450;2022-12-19T08:06:32;-0.12;59.90
36818;DHT22;22761;51.542;16.450;2022-12-19T08:08:59;-0.09;59.93
36818;DHT22;22761;51.542;16.450;2022-12-19T08:11:26;-0.00;59.77
36818;DHT22;22761;51.542;16.450;2022-12-19T08:13:56;0.05;59.58
36818;DHT22;22761;51.542;16.450;2022-12-19T08:16:25;0.14;59.48
36818;DHT22;22761;51.542;16.450;2022-12-19T08:18:53;0.17;59.49
36818;DHT22;22761;51.542;16.450;2022-12-19T08:21:21;0.18;59.65
36818;DHT22;22761;51.542;16.450;2022-12-19T08:23:48;0.22;59.66
36818;DHT22;22761;51.542;16.450;2022-12-19T08:26:19;0.28;59.35
36818;DHT22;22761;51.542;16.450;2022-12-19T08:28:48;0.32;59.34
36818;DHT22;22761;51.542;16.450;2022-12-19T08:31:16;0.33;59.49
36818;DHT22;22761;51.542;16.450;2022-12-19T08:33:44;0.40;59.33
36818;DHT22;22761;51.542;16.450;2022-12-19T08:36:15;0.42;59.33
36818;DHT22;22761;51.542;16.450;2022-12-19T08:38:44;0.52;59.17
36818;DHT22;22761;51.542;16.450;2022-12-19T08:41:13;0.59;59.15
36818;DHT22;22761;51.542;16.450;2022-12-19T08:43:41;0.67;58.90
36818;DHT22;22761;51.542;16.450;2022-12-19T08:46:08;0.73;58.57
36818;DHT22;22761;51.542;16.450;2022-12-19T08:48:36;0.75;58.74
36818;DHT22;22761;51.542;16.450;2022-12-19T08:51:06;0.81;58.34
36818;DHT22;22761;51.542;16.450;2022-12-19T08:53:36;0.87;58.52
36818;DHT22;22761;51.542;16.450;2022-12-19T08:56:12;0.92;58.53
36818;DHT22;22761;51.542;16.450;2022-12-19T08:58:35;0.99;58.13
36818;DHT22;22761;51.542;16.450;2022-12-19T09:01:06;1.05;57.87
36818;DHT22;22761;51.542;16.450;2022-12-19T09:03:37;1.12;58.00
36818;DHT22;22761;51.542;16.450;2022-12-19T09:06:07;1.18;57.70
36818;DHT22;22761;51.542;16.450;2022-12-19T09:08:36;1.25;57.92
36818;DHT22;22761;51.542;16.450;2022-12-19T09:11:10;1.43;57.71
36818;DHT22;22761;51.542;16.450;2022-12-19T09:13:40;1.56;57.50
36818;DHT22;22761;51.542;16.450;2022-12-19T09:16:17;1.74;57.20
36818;DHT22;22761;51.542;16.450;2022-12-19T09:18:44;1.92;57.19
36818;DHT22;22761;51.542;16.450;2022-12-19T09:21:12;2.10;56.87
36818;DHT22;22761;51.542;16.450;2022-12-19T09:23:41;2.29;56.04
36818;DHT22;22761;51.542;16.450;2022-12-19T09:26:11;2.46;55.80
36818;DHT22;22761;51.542;16.450;2022-12-19T09:28:40;2.63;55.58
36818;DHT22;22761;51.542;16.450;2022-12-19T09:31:11;2.72;55.05
36818;DHT22;22761;51.542;16.450;2022-12-19T09:33:39;2.88;54.83
36818;DHT22;22761;51.542;16.450;2022-12-19T09:36:07;2.99;55.19
36818;DHT22;22761;51.542;16.450;2022-12-19T09:38:35;3.13;55.05
36818;DHT22;22761;51.542;16.450;2022-12-19T09:44:26;3.68;53.52
36818;DHT22;22761;51.542;16.450;2022-12-19T09:46:58;3.85;53.70
36818;DHT22;22761;51.542;16.450;2022-12-19T09:49:40;4.04;53.42
36818;DHT22;22761;51.542;16.450;2022-12-19T09:55:19;4.31;53.39
36818;DHT22;22761;51.542;16.450;2022-12-19T09:58:04;4.58;52.66
36818;DHT22;22761;51.542;16.450;2022-12-19T10:00:39;4.71;53.02
36818;DHT22;22761;51.542;16.450;2022-12-19T10:03:35;4.89;52.45
36818;DHT22;22761;51.542;16.450;2022-12-19T10:06:17;5.10;51.85
36818;DHT22;22761;51.542;16.450;2022-12-19T10:08:45;5.28;52.18
36818;DHT22;22761;51.542;16.450;2022-12-19T10:14:17;5.20;51.78
36818;DHT22;22761;51.542;16.450;2022-12-19T10:20:24;5.21;51.92
36818;DHT22;22761;51.542;16.450;2022-12-19T10:26:19;5.29;53.27
36818;DHT22;22761;51.542;16.450;2022-12-19T10:29:17;5.37;51.71
36818;DHT22;22761;51.542;16.450;2022-12-19T10:32:05;5.22;51.70
36818;DHT22;22761;51.542;16.450;2022-12-19T10:34:42;5.39;52.41
36818;DHT22;22761;51.542;16.450;2022-12-19T10:37:26;5.39;51.89
36818;DHT22;22761;51.542;16.450;2022-12-19T10:45:15;5.29;51.64
36818;DHT22;22761;51.542;16.450;2022-12-19T10:47:41;5.18;52.59
36818;DHT22;22761;51.542;16.450;2022-12-19T10:50:21;5.35;52.66
36818;DHT22;22761;51.542;16.450;2022-12-19T10:55:34;5.29;52.68
36818;DHT22;22761;51.542;16.450;2022-12-19T10:58:36;5.27;51.66
36818;DHT22;22761;51.542;16.450;2022-12-19T11:00:58;5.22;53.22
36818;DHT22;22761;51.542;16.450;2022-12-19T11:03:16;5.34;52.50
36818;DHT22;22761;51.542;16.450;2022-12-19T11:05:51;5.18;52.16
36818;DHT22;22761;51.542;16.450;2022-12-19T11:08:28;5.35;52.74
36818;DHT22;22761;51.542;16.450;2022-12-19T11:13:42;5.34;52.66
36818;DHT22;22761;51.542;16.450;2022-12-19T11:16:10;5.35;52.54
36818;DHT22;22761;51.542;16.450;2022-12-19T11:18:44;5.28;52.16
36818;DHT22;22761;51.542;16.450;2022-12-19T11:21:27;5.25;52.57
36818;DHT22;22761;51.542;16.450;2022-12-19T11:24:10;5.32;51.99
36818;DHT22;22761;51.542;16.450;2022-12-19T11:26:47;5.39;52.13
36818;DHT22;22761;51.542;16.450;2022-12-19T11:31:58;5.55;51.24
36818;DHT22;22761;51.542;16.450;2022-12-19T11:34:29;5.52;51.49
36818;DHT22;22761;51.542;16.450;2022-12-19T11:39:52;5.41;52.51
36818;DHT22;22761;51.542;16.450;2022-12-19T11:42:33;5.43;52.25
36818;DHT22;22761;51.542;16.450;2022-12-19T11:51:30;5.34;51.96
36818;DHT22;22761;51.542;16.450;2022-12-19T11:56:39;5.35;52.73
36818;DHT22;22761;51.542;16.450;2022-12-19T11:59:20;5.21;52.39
36818;DHT22;22761;51.542;16.450;2022-12-19T12:14:23;5.24;52.91
36818;DHT22;22761;51.542;16.450;2022-12-19T12:22:48;5.35;52.54
36818;DHT22;22761;51.542;16.450;2022-12-19T12:31:21;5.17;52.58
36818;DHT22;22761;51.542;16.450;2022-12-19T12:45:43;5.28;53.23
36818;DHT22;22761;51.542;16.450;2022-12-19T12:48:29;5.21;52.33
36818;DHT22;22761;51.542;16.450;2022-12-19T12:50:56;5.14;53.66
36818;DHT22;22761;51.542;16.450;2022-12-19T12:53:34;5.29;53.27
36818;DHT22;22761;51.542;16.450;2022-12-19T12:56:06;5.15;52.88
36818;DHT22;22761;51.542;16.450;2022-12-19T13:09:29;5.12;53.32
36818;DHT22;22761;51.542;16.450;2022-12-19T13:12:02;5.15;53.58
36818;DHT22;22761;51.542;16.450;2022-12-19T13:14:50;5.24;53.77
36818;DHT22;22761;51.542;16.450;2022-12-19T13:37:02;5.18;54.16
36818;DHT22;22761;51.542;16.450;2022-12-19T13:39:32;5.20;54.32
36818;DHT22;22761;51.542;16.450;2022-12-19T13:42:16;5.21;54.42
36818;DHT22;22761;51.542;16.450;2022-12-19T13:44:48;5.18;54.14
36818;DHT22;22761;51.542;16.450;2022-12-19T13:47:18;5.20;53.87
36818;DHT22;22761;51.542;16.450;2022-12-19T13:49:46;5.17;53.99
36818;DHT22;22761;51.542;16.450;2022-12-19T13:52:16;5.15;54.40
36818;DHT22;22761;51.542;16.450;2022-12-19T13:54:50;5.14;54.34
36818;DHT22;22761;51.542;16.450;2022-12-19T13:57:31;5.11;54.72
36818;DHT22;22761;51.542;16.450;2022-12-19T14:00:06;5.01;55.09
36818;DHT22;22761;51.542;16.450;2022-12-19T14:02:46;5.03;54.92
36818;DHT22;22761;51.542;16.450;2022-12-19T14:05:25;4.94;55.03
36818;DHT22;22761;51.542;16.450;2022-12-19T14:07:57;4.87;55.37
36818;DHT22;22761;51.542;16.450;2022-12-19T14:10:33;4.80;55.60
36818;DHT22;22761;51.542;16.450;2022-12-19T14:13:07;4.72;56.06
36818;DHT22;22761;51.542;16.450;2022-12-19T14:15:54;4.71;56.15
36818;DHT22;22761;51.542;16.450;2022-12-19T14:18:25;4.69;56.55
36818;DHT22;22761;51.542;16.450;2022-12-19T14:21:22;4.65;57.22
36818;DHT22;22761;51.542;16.450;2022-12-19T14:23:50;4.62;57.98
36818;DHT22;22761;51.542;16.450;2022-12-19T14:26:29;4.59;58.23
36818;DHT22;22761;51.542;16.450;2022-12-19T14:31:30;4.55;58.76
36818;DHT22;22761;51.542;16.450;2022-12-19T14:34:01;4.52;58.77
36818;DHT22;22761;51.542;16.450;2022-12-19T14:36:31;4.54;59.01
36818;DHT22;22761;51.542;16.450;2022-12-19T14:38:59;4.51;58.82
36818;DHT22;22761;51.542;16.450;2022-12-19T14:41:35;4.51;59.21
36818;DHT22;22761;51.542;16.450;2022-12-19T14:44:18;4.42;59.49
36818;DHT22;22761;51.542;16.450;2022-12-19T14:47:03;4.41;59.84
36818;DHT22;22761;51.542;16.450;2022-12-19T14:49:33;4.39;59.91
36818;DHT22;22761;51.542;16.450;2022-12-19T14:52:31;4.39;60.00
36818;DHT22;22761;51.542;16.450;2022-12-19T14:54:34;4.39;59.82
36818;DHT22;22761;51.542;16.450;2022-12-19T14:57:03;4.38;59.54
36818;DHT22;22761;51.542;16.450;2022-12-19T14:59:45;4.30;59.44
36818;DHT22;22761;51.542;16.450;2022-12-19T15:02:20;4.28;59.74
36818;DHT22;22761;51.542;16.450;2022-12-19T15:04:48;4.27;59.79
36818;DHT22;22761;51.542;16.450;2022-12-19T15:07:22;4.32;59.77
36818;DHT22;22761;51.542;16.450;2022-12-19T15:10:00;4.28;59.73
36818;DHT22;22761;51.542;16.450;2022-12-19T15:12:48;4.28;59.72
36818;DHT22;22761;51.542;16.450;2022-12-19T15:15:39;4.27;60.05
36818;DHT22;22761;51.542;16.450;2022-12-19T15:20:58;4.30;60.08
36818;DHT22;22761;51.542;16.450;2022-12-19T15:23:26;4.30;60.15
36818;DHT22;22761;51.542;16.450;2022-12-19T15:25:59;4.27;60.09
36818;DHT22;22761;51.542;16.450;2022-12-19T15:28:47;4.24;60.04
36818;DHT22;22761;51.542;16.450;2022-12-19T15:31:37;4.24;60.46
36818;DHT22;22761;51.542;16.450;2022-12-19T15:34:21;4.27;60.38
36818;DHT22;22761;51.542;16.450;2022-12-19T15:36:52;4.28;60.43
36818;DHT22;22761;51.542;16.450;2022-12-19T15:39:20;4.30;60.63
36818;DHT22;22761;51.542;16.450;2022-12-19T15:41:50;4.28;60.69
36818;DHT22;22761;51.542;16.450;2022-12-19T15:44:32;4.20;61.00
36818;DHT22;22761;51.542;16.450;2022-12-19T15:47:02;4.14;61.57
36818;DHT22;22761;51.542;16.450;2022-12-19T15:49:30;4.14;61.96
36818;DHT22;22761;51.542;16.450;2022-12-19T15:52:00;4.16;62.09
36818;DHT22;22761;51.542;16.450;2022-12-19T15:54:28;4.13;62.35
36818;DHT22;22761;51.542;16.450;2022-12-19T15:56:56;4.16;62.65
36818;DHT22;22761;51.542;16.450;2022-12-19T15:59:36;4.11;62.49
36818;DHT22;22761;51.542;16.450;2022-12-19T16:02:15;4.02;63.02
36818;DHT22;22761;51.542;16.450;2022-12-19T16:04:43;4.00;62.70
36818;DHT22;22761;51.542;16.450;2022-12-19T16:07:17;3.97;63.39
36818;DHT22;22761;51.542;16.450;2022-12-19T16:09:45;3.94;63.49
36818;DHT22;22761;51.542;16.450;2022-12-19T16:12:30;3.92;63.68
36818;DHT22;22761;51.542;16.450;2022-12-19T16:14:58;3.83;63.32
36818;DHT22;22761;51.542;16.450;2022-12-19T16:17:26;3.83;64.11
36818;DHT22;22761;51.542;16.450;2022-12-19T16:19:55;3.86;64.05
36818;DHT22;22761;51.542;16.450;2022-12-19T16:22:25;3.89;63.82
36818;DHT22;22761;51.542;16.450;2022-12-19T16:24:54;3.89;63.62
36818;DHT22;22761;51.542;16.450;2022-12-19T16:27:24;3.90;63.29
36818;DHT22;22761;51.542;16.450;2022-12-19T16:29:54;3.94;63.41
36818;DHT22;22761;51.542;16.450;2022-12-19T16:32:22;3.93;63.51
36818;DHT22;22761;51.542;16.450;2022-12-19T16:34:51;3.96;63.24
36818;DHT22;22761;51.542;16.450;2022-12-19T16:37:19;4.02;62.83
36818;DHT22;22761;51.542;16.450;2022-12-19T16:39:46;4.00;62.73
36818;DHT22;22761;51.542;16.450;2022-12-19T16:42:15;4.11;62.04
36818;DHT22;22761;51.542;16.450;2022-12-19T16:44:45;4.06;62.43
36818;DHT22;22761;51.542;16.450;2022-12-19T16:47:15;4.03;62.33
36818;DHT22;22761;51.542;16.450;2022-12-19T16:49:44;4.11;62.03
36818;DHT22;22761;51.542;16.450;2022-12-19T16:52:11;4.13;62.05
36818;DHT22;22761;51.542;16.450;2022-12-19T16:54:39;4.14;62.00
36818;DHT22;22761;51.542;16.450;2022-12-19T16:57:17;4.17;62.07
36818;DHT22;22761;51.542;16.450;2022-12-19T16:59:41;4.17;61.95
36818;DHT22;22761;51.542;16.450;2022-12-19T17:02:38;4.24;61.66
36818;DHT22;22761;51.542;16.450;2022-12-19T17:05:06;4.28;61.60
36818;DHT22;22761;51.542;16.450;2022-12-19T17:07:35;4.32;61.35
36818;DHT22;22761;51.542;16.450;2022-12-19T17:10:04;4.28;61.59
36818;DHT22;22761;51.542;16.450;2022-12-19T17:12:31;4.35;61.51
36818;DHT22;22761;51.542;16.450;2022-12-19T17:14:58;4.34;61.51
36818;DHT22;22761;51.542;16.450;2022-12-19T17:17:25;4.37;61.37
36818;DHT22;22761;51.542;16.450;2022-12-19T17:19:52;4.39;61.69
36818;DHT22;22761;51.542;16.450;2022-12-19T17:22:20;4.39;61.62
36818;DHT22;22761;51.542;16.450;2022-12-19T17:24:48;4.38;61.82
36818;DHT22;22761;51.542;16.450;2022-12-19T17:27:16;4.47;61.77
36818;DHT22;22761;51.542;16.450;2022-12-19T17:29:45;4.49;61.52
36818;DHT22;22761;51.542;16.450;2022-12-19T17:32:16;4.51;61.63
36818;DHT22;22761;51.542;16.450;2022-12-19T17:34:43;4.51;61.36
36818;DHT22;22761;51.542;16.450;2022-12-19T17:37:14;4.52;61.57
36818;DHT22;22761;51.542;16.450;2022-12-19T17:39:42;4.51;61.65
36818;DHT22;22761;51.542;16.450;2022-12-19T17:42:21;4.51;61.83
36818;DHT22;22761;51.542;16.450;2022-12-19T17:44:48;4.52;62.12
36818;DHT22;22761;51.542;16.450;2022-12-19T17:47:18;4.54;62.26
36818;DHT22;22761;51.542;16.450;2022-12-19T17:49:46;4.52;62.23
36818;DHT22;22761;51.542;16.450;2022-12-19T17:52:17;4.55;62.56
36818;DHT22;22761;51.542;16.450;2022-12-19T17:54:45;4.56;62.53
36818;DHT22;22761;51.542;16.450;2022-12-19T17:57:14;4.54;63.00
36818;DHT22;22761;51.542;16.450;2022-12-19T17:59:42;4.52;63.21
36818;DHT22;22761;51.542;16.450;2022-12-19T18:02:21;4.58;63.13
36818;DHT22;22761;51.542;16.450;2022-12-19T18:04:50;4.52;63.35
36818;DHT22;22761;51.542;16.450;2022-12-19T18:07:18;4.49;64.09
36818;DHT22;22761;51.542;16.450;2022-12-19T18:09:46;4.45;64.52
36818;DHT22;22761;51.542;16.450;2022-12-19T18:12:14;4.39;65.23
36818;DHT22;22761;51.542;16.450;2022-12-19T18:14:41;4.38;65.15
36818;DHT22;22761;51.542;16.450;2022-12-19T18:17:24;4.30;65.89
36818;DHT22;22761;51.542;16.450;2022-12-19T18:19:51;4.24;66.43